createdAt,value
2024-02-17T00:00:11.985Z,11.31
2024-02-17T00:02:39.617Z,11.08
2024-02-17T00:05:07.995Z,10.69
2024-02-17T00:07:35.755Z,10.77
2024-02-17T00:10:03.758Z,10.10
2024-02-17T00:12:31.453Z,9.66
2024-02-17T00:15:00.442Z,9.35
2024-02-17T00:17:28.093Z,9.36
2024-02-17T00:19:55.902Z,9.80
2024-02-17T00:22:23.613Z,9.59
2024-02-17T00:24:51.217Z,10.00
2024-02-17T00:27:18.911Z,9.81
2024-02-17T00:29:46.506Z,9.44
2024-02-17T00:32:15.497Z,9.34
2024-02-17T00:34:43.172Z,9.19
2024-02-17T00:37:10.895Z,9.33
2024-02-17T00:39:38.509Z,9.32
2024-02-17T00:42:06.404Z,9.23
2024-02-17T00:44:34.114Z,9.28
2024-02-17T00:47:01.852Z,9.55
2024-02-17T00:49:31.009Z,9.49
2024-02-17T00:51:58.776Z,9.61
2024-02-17T00:54:26.490Z,9.46
2024-02-17T00:56:54.161Z,9.36
2024-02-17T00:59:21.762Z,9.17
2024-02-17T01:01:52.274Z,9.10
2024-02-17T01:04:20.081Z,8.92
2024-02-17T01:06:49.128Z,8.86
2024-02-17T01:09:16.855Z,8.96
2024-02-17T01:11:44.532Z,9.09
2024-02-17T01:14:12.214Z,9.21
2024-02-17T01:16:39.840Z,9.99
2024-02-17T01:19:07.670Z,10.49
2024-02-17T01:21:35.703Z,10.32
2024-02-17T01:24:05.298Z,10.54
2024-02-17T01:26:32.943Z,10.36
2024-02-17T01:29:00.526Z,10.22
2024-02-17T01:31:28.148Z,10.40
2024-02-17T01:33:55.792Z,10.67
2024-02-17T01:36:23.455Z,11.30
2024-02-17T01:38:51.326Z,11.59
2024-02-17T01:41:20.308Z,11.72
2024-02-17T01:43:47.880Z,11.18
2024-02-17T01:46:15.627Z,11.65
2024-02-17T01:48:43.538Z,11.78
2024-02-17T01:51:12.461Z,11.27
2024-02-17T01:53:41.230Z,11.47
2024-02-17T01:56:10.726Z,11.51
2024-02-17T01:58:39.997Z,11.28
2024-02-17T02:01:07.819Z,10.64
2024-02-17T02:03:35.534Z,10.34
2024-02-17T02:06:04.104Z,10.25
2024-02-17T02:08:32.166Z,10.65
2024-02-17T02:11:00.034Z,11.19
2024-02-17T02:13:27.782Z,11.70
2024-02-17T02:15:56.923Z,11.92
2024-02-17T02:18:24.845Z,11.83
2024-02-17T02:20:52.703Z,11.99
2024-02-17T02:23:20.513Z,11.42
2024-02-17T02:25:52.934Z,11.31
2024-02-17T02:28:21.038Z,11.82
2024-02-17T02:30:49.211Z,11.53
2024-02-17T02:33:17.328Z,10.97
2024-02-17T02:35:45.142Z,10.63
2024-02-17T02:38:12.918Z,10.58
2024-02-17T02:40:40.538Z,10.65
2024-02-17T02:43:09.508Z,10.84
2024-02-17T02:45:37.199Z,10.78
2024-02-17T02:48:05.671Z,10.92
2024-02-17T02:50:33.332Z,11.39
2024-02-17T02:53:01.081Z,11.95
2024-02-17T02:55:28.707Z,12.11
2024-02-17T02:57:56.338Z,12.32
2024-02-17T03:00:25.376Z,12.37
2024-02-17T03:02:53.126Z,12.32
2024-02-17T03:05:20.811Z,11.92
2024-02-17T03:07:48.472Z,11.49
2024-02-17T03:10:16.237Z,11.06
2024-02-17T03:12:44.192Z,10.72
2024-02-17T03:15:12.012Z,10.46
2024-02-17T03:17:41.287Z,10.12
2024-02-17T03:20:09.786Z,10.03
2024-02-17T03:22:37.432Z,10.21
2024-02-17T03:25:05.746Z,10.24
2024-02-17T03:27:33.414Z,11.12
2024-02-17T03:30:01.235Z,10.89
2024-02-17T03:32:28.904Z,11.45
2024-02-17T03:34:58.115Z,11.27
2024-02-17T03:37:25.773Z,10.76
2024-02-17T03:39:54.462Z,10.48
2024-02-17T03:42:22.424Z,10.61
2024-02-17T03:44:50.008Z,10.65
2024-02-17T03:47:17.654Z,10.60
2024-02-17T03:49:45.340Z,10.55
2024-02-17T03:52:14.502Z,10.25
2024-02-17T03:54:42.255Z,9.93
2024-02-17T03:57:09.893Z,9.00
2024-02-17T03:59:37.490Z,8.63
2024-02-17T04:02:05.249Z,8.55
2024-02-17T04:04:32.927Z,8.50
2024-02-17T04:07:00.746Z,8.90
2024-02-17T04:09:29.851Z,9.31
2024-02-17T04:11:57.475Z,9.99
2024-02-17T04:14:25.328Z,9.45
2024-02-17T04:16:52.991Z,9.17
2024-02-17T04:19:20.726Z,9.60
2024-02-17T04:21:48.443Z,10.25
2024-02-17T04:24:16.182Z,9.55
2024-02-17T04:26:45.285Z,9.07
2024-02-17T04:29:12.930Z,8.80
2024-02-17T04:31:40.646Z,8.67
2024-02-17T04:34:08.454Z,8.79
2024-02-17T04:36:36.237Z,8.53
2024-02-17T04:39:04.026Z,8.33
2024-02-17T04:41:31.826Z,8.42
2024-02-17T04:44:00.778Z,8.24
2024-02-17T04:46:28.405Z,8.36
2024-02-17T04:48:56.076Z,8.54
2024-02-17T04:51:23.769Z,8.41
2024-02-17T04:53:51.562Z,8.44
2024-02-17T04:56:19.192Z,8.36
2024-02-17T04:58:46.799Z,8.38
2024-02-17T05:01:15.867Z,8.40
2024-02-17T05:03:43.692Z,8.56
2024-02-17T05:06:11.393Z,8.55
2024-02-17T05:08:39.035Z,8.70
2024-02-17T05:11:06.718Z,8.78
2024-02-17T05:13:34.447Z,8.81
2024-02-17T05:16:02.110Z,8.91
2024-02-17T05:18:31.304Z,8.97
2024-02-17T05:21:00.379Z,9.07
2024-02-17T05:23:28.036Z,9.82
2024-02-17T05:25:55.798Z,10.33
2024-02-17T05:28:23.395Z,10.55
2024-02-17T05:30:51.415Z,10.70
2024-02-17T05:33:20.481Z,10.76
2024-02-17T05:35:50.689Z,10.83
2024-02-17T05:38:18.276Z,10.95
2024-02-17T05:40:46.309Z,11.02
2024-02-17T05:43:13.930Z,11.13
2024-02-17T05:45:41.608Z,11.27
2024-02-17T05:48:09.326Z,11.21
2024-02-17T05:50:37.068Z,10.97
2024-02-17T05:53:06.111Z,10.60
2024-02-17T05:55:33.776Z,10.95
2024-02-17T05:58:01.362Z,10.73
2024-02-17T06:00:28.972Z,11.09
2024-02-17T06:02:56.575Z,11.36
2024-02-17T06:05:24.204Z,11.38
2024-02-17T06:07:52.001Z,11.32
2024-02-17T06:10:21.068Z,11.24
2024-02-17T06:12:48.802Z,11.46
2024-02-17T06:15:16.605Z,11.69
2024-02-17T06:17:44.484Z,11.29
2024-02-17T06:20:12.531Z,10.06
2024-02-17T06:22:40.231Z,9.50
2024-02-17T06:25:08.555Z,8.95
2024-02-17T06:27:37.623Z,8.72
2024-02-17T06:30:06.434Z,8.55
2024-02-17T06:32:34.350Z,8.52
2024-02-17T06:35:02.033Z,8.50
2024-02-17T06:37:29.666Z,8.61
2024-02-17T06:39:57.300Z,8.78
2024-02-17T06:42:24.984Z,9.02
2024-02-17T06:44:53.949Z,9.31
2024-02-17T06:47:21.622Z,9.69
2024-02-17T06:49:49.311Z,10.15
2024-02-17T06:52:17.216Z,10.73
2024-02-17T06:54:44.816Z,11.02
2024-02-17T06:57:12.490Z,11.29
2024-02-17T06:59:40.090Z,11.15
2024-02-17T07:02:09.065Z,11.61
2024-02-17T07:04:36.679Z,11.83
2024-02-17T07:07:04.695Z,12.04
2024-02-17T07:09:32.356Z,11.84
2024-02-17T07:11:59.987Z,11.43
2024-02-17T07:14:27.584Z,11.33
2024-02-17T07:16:55.193Z,11.51
2024-02-17T07:19:24.927Z,11.68
2024-02-17T07:21:52.661Z,11.98
2024-02-17T07:24:20.289Z,11.45
2024-02-17T07:26:47.910Z,10.91
2024-02-17T07:29:15.524Z,10.28
2024-02-17T07:31:43.992Z,10.29
2024-02-17T07:34:12.735Z,10.65
2024-02-17T07:36:41.896Z,11.62
2024-02-17T07:39:09.643Z,11.63
2024-02-17T07:41:37.299Z,11.58
2024-02-17T07:44:07.786Z,11.37
2024-02-17T07:46:35.410Z,10.84
2024-02-17T07:49:03.462Z,10.43
2024-02-17T07:51:31.117Z,10.42
2024-02-17T07:54:01.530Z,10.48
2024-02-17T07:56:29.313Z,10.12
2024-02-17T07:58:57.009Z,10.19
2024-02-17T08:01:24.636Z,9.74
2024-02-17T08:03:52.593Z,9.94
2024-02-17T08:06:20.423Z,10.18
2024-02-17T08:08:48.314Z,10.35
2024-02-17T08:11:17.736Z,10.40
2024-02-17T08:13:45.622Z,10.52
2024-02-17T08:16:13.455Z,10.66
2024-02-17T08:18:41.378Z,10.73
2024-02-17T08:21:09.164Z,10.69
2024-02-17T08:23:37.065Z,10.89
2024-02-17T08:26:05.365Z,10.82
2024-02-17T08:28:35.200Z,11.12
2024-02-17T08:31:02.913Z,11.65
2024-02-17T08:33:30.791Z,12.27
2024-02-17T08:35:58.515Z,12.71
2024-02-17T08:38:26.093Z,13.00
2024-02-17T08:40:53.937Z,13.18
2024-02-17T08:43:21.544Z,13.09
2024-02-17T08:45:50.563Z,13.70
2024-02-17T08:48:18.337Z,13.59
2024-02-17T08:50:46.156Z,13.23
2024-02-17T08:53:14.051Z,12.80
2024-02-17T08:55:41.739Z,13.13
2024-02-17T08:58:09.330Z,12.46
2024-02-17T09:00:38.362Z,12.16
2024-02-17T09:03:07.542Z,12.25
2024-02-17T09:05:35.454Z,12.50
2024-02-17T09:08:03.186Z,12.15
2024-02-17T09:10:31.000Z,12.47
2024-02-17T09:12:58.627Z,12.64
2024-02-17T09:15:26.398Z,11.82
2024-02-17T09:17:54.105Z,11.80
2024-02-17T09:20:23.125Z,11.47
2024-02-17T09:22:50.767Z,10.96
2024-02-17T09:25:18.320Z,10.91
2024-02-17T09:27:46.615Z,10.95
2024-02-17T09:30:14.619Z,10.55
2024-02-17T09:32:42.392Z,10.87
2024-02-17T09:35:10.263Z,11.00
2024-02-17T09:37:39.250Z,10.86
2024-02-17T09:40:11.699Z,10.69
2024-02-17T09:42:39.585Z,11.09
2024-02-17T09:45:07.599Z,11.15
2024-02-17T09:47:35.764Z,10.95
2024-02-17T09:50:04.343Z,11.01
2024-02-17T09:52:32.168Z,10.89
2024-02-17T09:55:01.189Z,11.07
2024-02-17T09:57:37.921Z,10.77
2024-02-17T10:00:15.445Z,11.38
2024-02-17T10:02:44.008Z,11.59
2024-02-17T10:05:11.792Z,11.47
2024-02-17T10:07:48.903Z,11.51
2024-02-17T10:10:19.698Z,11.39
2024-02-17T10:12:51.961Z,11.27
2024-02-17T10:15:21.599Z,11.70
2024-02-17T10:17:50.458Z,11.56
2024-02-17T10:20:18.375Z,11.05
2024-02-17T10:22:47.320Z,11.28
2024-02-17T10:25:15.836Z,11.37
2024-02-17T10:27:45.035Z,10.83
2024-02-17T10:30:14.736Z,10.93
2024-02-17T10:32:42.659Z,10.60
2024-02-17T10:35:12.133Z,10.85
2024-02-17T10:37:41.035Z,11.01
2024-02-17T10:40:11.871Z,10.87
2024-02-17T10:42:39.723Z,10.82
2024-02-17T10:45:09.890Z,11.64
2024-02-17T10:47:39.320Z,11.58
2024-02-17T10:50:15.461Z,11.60
2024-02-17T10:52:46.392Z,11.51
2024-02-17T10:55:15.815Z,11.53
2024-02-17T10:57:55.766Z,11.49
2024-02-17T11:00:26.371Z,12.28
2024-02-17T11:03:02.116Z,12.60
2024-02-17T11:05:33.584Z,12.50
2024-02-17T11:08:02.305Z,12.22
2024-02-17T11:10:31.836Z,12.42
2024-02-17T11:12:59.789Z,12.30
2024-02-17T11:15:29.647Z,12.54
2024-02-17T11:18:00.977Z,13.08
2024-02-17T11:20:29.069Z,13.56
2024-02-17T11:22:58.405Z,13.80
2024-02-17T11:25:31.149Z,14.17
2024-02-17T11:28:01.408Z,12.92
2024-02-17T11:30:47.616Z,13.34
2024-02-17T11:33:16.671Z,13.31
2024-02-17T11:35:47.047Z,13.11
2024-02-17T11:38:16.440Z,11.92
2024-02-17T11:40:45.720Z,12.05
2024-02-17T11:43:13.560Z,12.18
2024-02-17T11:45:42.539Z,12.21
2024-02-17T11:48:10.278Z,12.43
2024-02-17T11:50:40.549Z,12.59
2024-02-17T11:53:09.525Z,12.44
2024-02-17T11:55:37.414Z,12.67
2024-02-17T11:58:07.878Z,12.83
2024-02-17T12:00:38.865Z,12.65
2024-02-17T12:03:09.764Z,12.70
2024-02-17T12:05:37.623Z,12.83
2024-02-17T12:08:06.275Z,13.06
2024-02-17T12:10:33.868Z,14.97
2024-02-17T12:13:01.701Z,15.45
2024-02-17T12:15:29.417Z,13.96
2024-02-17T12:17:57.759Z,13.13
2024-02-17T12:20:26.723Z,13.41
2024-02-17T12:22:56.245Z,13.24
2024-02-17T12:25:24.457Z,13.03
2024-02-17T12:27:53.126Z,13.57
2024-02-17T12:30:21.014Z,13.46
2024-02-17T12:32:48.764Z,13.30
2024-02-17T12:35:18.464Z,13.02
2024-02-17T12:37:49.336Z,14.16
2024-02-17T12:40:18.965Z,13.72
2024-02-17T12:42:52.516Z,15.40
2024-02-17T12:45:24.599Z,13.59
2024-02-17T12:47:52.734Z,12.97
2024-02-17T12:50:23.263Z,13.00
2024-02-17T12:53:06.837Z,12.68
2024-02-17T12:55:34.688Z,12.30
2024-02-17T12:58:02.580Z,12.08
2024-02-17T13:00:30.273Z,12.59
2024-02-17T13:02:57.880Z,12.54
2024-02-17T13:05:25.520Z,12.89
2024-02-17T13:07:54.809Z,13.02
2024-02-17T13:10:22.548Z,13.21
2024-02-17T13:12:50.314Z,13.38
2024-02-17T13:15:18.201Z,12.70
2024-02-17T13:17:46.183Z,12.61
2024-02-17T13:20:17.166Z,13.22
2024-02-17T13:22:45.604Z,13.34
2024-02-17T13:25:14.749Z,13.92
2024-02-17T13:27:42.470Z,13.62
2024-02-17T13:30:12.199Z,12.83
2024-02-17T13:32:41.196Z,13.28
2024-02-17T13:35:09.021Z,12.77
2024-02-17T13:37:36.885Z,12.45
2024-02-17T13:40:05.415Z,12.82
2024-02-17T13:42:35.084Z,12.94
2024-02-17T13:45:03.459Z,13.05
2024-02-17T13:47:31.407Z,13.25
2024-02-17T13:49:59.115Z,13.73
2024-02-17T13:52:27.184Z,14.40
2024-02-17T13:54:55.063Z,13.33
2024-02-17T13:57:22.973Z,13.20
2024-02-17T13:59:54.947Z,13.51
2024-02-17T14:02:25.137Z,13.59
2024-02-17T14:04:52.980Z,13.65
2024-02-17T14:07:20.635Z,13.05
2024-02-17T14:09:48.291Z,13.67
2024-02-17T14:12:16.239Z,13.01
2024-02-17T14:14:44.339Z,13.25
2024-02-17T14:17:14.073Z,13.23
2024-02-17T14:19:44.501Z,13.31
2024-02-17T14:22:15.219Z,13.72
2024-02-17T14:24:42.867Z,13.85
2024-02-17T14:27:10.726Z,14.03
2024-02-17T14:29:38.419Z,14.24
2024-02-17T14:32:06.551Z,14.25
2024-02-17T14:34:36.020Z,13.20
2024-02-17T14:37:04.108Z,12.51
2024-02-17T14:39:31.808Z,13.00
2024-02-17T14:41:59.427Z,13.61
2024-02-17T14:44:27.079Z,14.58
2024-02-17T14:46:54.642Z,14.70
2024-02-17T14:49:22.388Z,14.49
2024-02-17T14:51:54.363Z,14.75
2024-02-17T14:54:21.967Z,15.71
2024-02-17T14:56:49.563Z,15.93
2024-02-17T14:59:19.701Z,15.77
2024-02-17T15:01:47.340Z,14.41
2024-02-17T15:04:15.072Z,14.26
2024-02-17T15:06:42.890Z,14.27
2024-02-17T15:09:11.901Z,14.61
2024-02-17T15:11:39.668Z,14.33
2024-02-17T15:14:07.303Z,14.65
2024-02-17T15:16:34.950Z,15.07
2024-02-17T15:19:02.678Z,15.64
2024-02-17T15:21:30.365Z,16.05
2024-02-17T15:23:57.978Z,16.04
2024-02-17T15:26:27.021Z,16.13
2024-02-17T15:28:54.655Z,16.56
2024-02-17T15:31:22.218Z,16.63
2024-02-17T15:33:50.084Z,16.42
2024-02-17T15:36:17.948Z,16.88
2024-02-17T15:38:46.243Z,16.84
2024-02-17T15:41:15.437Z,17.01
2024-02-17T15:43:44.477Z,16.96
2024-02-17T15:46:12.098Z,17.08
2024-02-17T15:48:39.886Z,17.33
2024-02-17T15:51:07.525Z,17.56
2024-02-17T15:53:35.106Z,17.08
2024-02-17T15:56:03.286Z,17.28
2024-02-17T15:58:30.868Z,16.86
2024-02-17T16:00:59.944Z,17.43
2024-02-17T16:03:30.381Z,17.50
2024-02-17T16:05:58.900Z,16.51
2024-02-17T16:08:26.591Z,16.92
2024-02-17T16:10:54.299Z,16.95
2024-02-17T16:13:22.188Z,17.25
2024-02-17T16:15:49.911Z,17.07
2024-02-17T16:18:19.076Z,16.31
2024-02-17T16:20:49.546Z,16.54
2024-02-17T16:23:17.217Z,16.43
2024-02-17T16:25:44.887Z,16.45
2024-02-17T16:28:12.459Z,16.25
2024-02-17T16:30:40.065Z,16.43
2024-02-17T16:33:07.767Z,16.71
2024-02-17T16:35:36.806Z,16.64
2024-02-17T16:38:04.833Z,16.28
2024-02-17T16:40:32.451Z,16.61
2024-02-17T16:43:00.410Z,16.07
2024-02-17T16:45:28.772Z,16.02
2024-02-17T16:47:57.015Z,15.89
2024-02-17T16:50:24.828Z,15.94
2024-02-17T16:52:54.057Z,16.21
2024-02-17T16:55:21.639Z,16.21
2024-02-17T16:57:49.288Z,15.51
2024-02-17T17:00:17.609Z,15.84
2024-02-17T17:02:45.274Z,15.31
2024-02-17T17:05:12.933Z,15.24
2024-02-17T17:07:40.534Z,15.45
2024-02-17T17:10:10.612Z,15.00
2024-02-17T17:12:38.352Z,14.98
2024-02-17T17:15:07.448Z,15.04
2024-02-17T17:17:35.244Z,14.91
2024-02-17T17:20:04.172Z,14.70
2024-02-17T17:25:03.393Z,14.82
2024-02-17T17:27:32.498Z,15.20
2024-02-17T17:30:00.168Z,14.58
2024-02-17T17:32:27.822Z,14.41
2024-02-17T17:34:55.491Z,14.38
2024-02-17T17:37:23.207Z,14.48
2024-02-17T17:39:51.032Z,14.41
2024-02-17T17:42:18.989Z,14.30
2024-02-17T17:44:50.266Z,14.01
2024-02-17T17:47:20.408Z,14.14
2024-02-17T17:49:48.486Z,14.07
2024-02-17T17:52:16.410Z,14.09
2024-02-17T17:54:44.235Z,14.27
2024-02-17T17:57:11.902Z,13.92
2024-02-17T17:59:39.508Z,14.18
2024-02-17T18:02:08.450Z,14.09
2024-02-17T18:04:36.134Z,14.17
2024-02-17T18:07:04.558Z,14.24
2024-02-17T18:09:32.487Z,14.15
2024-02-17T18:12:00.238Z,13.98
2024-02-17T18:14:27.818Z,14.18
2024-02-17T18:16:55.505Z,14.08
2024-02-17T18:19:24.646Z,14.09
2024-02-17T18:21:52.560Z,14.29
2024-02-17T18:24:20.215Z,14.06
2024-02-17T18:26:47.819Z,14.16
2024-02-17T18:29:15.472Z,14.26
2024-02-17T18:31:43.128Z,14.00
2024-02-17T18:34:11.874Z,14.26
2024-02-17T18:36:40.979Z,13.86
2024-02-17T18:39:08.800Z,13.80
2024-02-17T18:41:36.509Z,13.93
2024-02-17T18:44:04.420Z,13.99
2024-02-17T18:46:37.322Z,13.97
2024-02-17T18:49:04.980Z,13.75
2024-02-17T18:51:32.757Z,13.87
2024-02-17T18:54:04.982Z,13.58
2024-02-17T18:56:34.826Z,13.64
2024-02-17T18:59:02.423Z,13.30
2024-02-17T19:01:30.301Z,13.23
2024-02-17T19:03:58.109Z,13.49
2024-02-17T19:06:26.285Z,13.29
2024-02-17T19:08:54.032Z,13.36
2024-02-17T19:11:23.411Z,13.65
2024-02-17T19:13:52.707Z,13.66
2024-02-17T19:16:20.552Z,13.68
2024-02-17T19:18:49.392Z,13.51
2024-02-17T19:21:17.250Z,13.26
2024-02-17T19:23:44.942Z,13.55
2024-02-17T19:26:13.131Z,13.65
2024-02-17T19:28:44.673Z,13.88
2024-02-17T19:31:12.745Z,13.76
2024-02-17T19:33:40.726Z,13.32
2024-02-17T19:36:08.835Z,13.72
2024-02-17T19:38:36.717Z,13.92
2024-02-17T19:41:05.083Z,13.93
2024-02-17T19:43:32.852Z,14.11
2024-02-17T19:46:02.016Z,14.26
2024-02-17T19:48:30.019Z,14.28
2024-02-17T19:50:57.970Z,14.39
2024-02-17T19:53:25.884Z,14.41
2024-02-17T19:55:53.498Z,14.62
2024-02-17T19:58:21.217Z,14.52
2024-02-17T20:00:48.965Z,14.73
2024-02-17T20:03:18.048Z,14.63
2024-02-17T20:05:45.805Z,14.77
2024-02-17T20:08:13.659Z,14.99
2024-02-17T20:10:41.225Z,15.20
2024-02-17T20:13:08.805Z,15.23
2024-02-17T20:15:36.423Z,15.31
2024-02-17T20:18:04.765Z,15.15
2024-02-17T20:20:33.835Z,15.23
2024-02-17T20:23:01.447Z,14.94
2024-02-17T20:25:29.038Z,14.99
2024-02-17T20:27:56.686Z,15.10
2024-02-17T20:30:24.393Z,15.38
2024-02-17T20:32:52.035Z,14.57
2024-02-17T20:35:19.787Z,15.00
2024-02-17T20:37:51.751Z,15.30
2024-02-17T20:40:19.390Z,15.16
2024-02-17T20:42:47.149Z,14.23
2024-02-17T20:45:15.235Z,14.35
2024-02-17T20:47:45.143Z,14.62
2024-02-17T20:50:13.416Z,14.82
2024-02-17T20:52:42.741Z,14.11
2024-02-17T20:55:11.829Z,13.05
2024-02-17T20:57:40.289Z,14.04
2024-02-17T21:00:09.569Z,14.20
2024-02-17T21:02:37.274Z,14.49
2024-02-17T21:05:05.938Z,14.39
2024-02-17T21:07:33.783Z,14.74
2024-02-17T21:10:01.986Z,13.72
2024-02-17T21:12:31.581Z,12.94
2024-02-17T21:14:59.370Z,13.61
2024-02-17T21:17:27.009Z,13.69
2024-02-17T21:19:56.969Z,13.24
2024-02-17T21:22:24.745Z,12.74
2024-02-17T21:24:52.407Z,12.65
2024-02-17T21:27:20.169Z,13.05
2024-02-17T21:29:50.674Z,12.84
2024-02-17T21:32:18.830Z,12.74
2024-02-17T21:34:46.672Z,12.66
2024-02-17T21:37:14.485Z,12.50
2024-02-17T21:39:42.424Z,12.70
2024-02-17T21:42:11.497Z,12.71
2024-02-17T21:44:39.056Z,12.74
2024-02-17T21:47:08.121Z,12.61
2024-02-17T21:49:36.000Z,13.20
2024-02-17T21:52:04.185Z,12.70
2024-02-17T21:54:31.965Z,13.20
2024-02-17T21:57:00.707Z,12.86
2024-02-17T21:59:28.354Z,13.37
2024-02-17T22:02:01.865Z,13.36
2024-02-17T22:04:34.876Z,13.55
2024-02-17T22:07:02.680Z,13.76
2024-02-17T22:09:30.379Z,13.72
2024-02-17T22:11:58.005Z,13.02
2024-02-17T22:14:25.588Z,12.99
2024-02-17T22:16:53.257Z,12.75
2024-02-17T22:19:21.311Z,12.61
2024-02-17T22:21:50.314Z,13.18
2024-02-17T22:24:18.027Z,13.35
2024-02-17T22:26:45.634Z,13.33
2024-02-17T22:29:13.365Z,13.15
2024-02-17T22:31:41.099Z,13.73
2024-02-17T22:34:08.865Z,14.32
2024-02-17T22:36:36.680Z,14.48
2024-02-17T22:39:05.655Z,14.72
2024-02-17T22:41:33.280Z,14.69
2024-02-17T22:44:00.891Z,14.74
2024-02-17T22:46:28.505Z,14.98
2024-02-17T22:48:56.200Z,15.13
2024-02-17T22:51:23.855Z,14.86
2024-02-17T22:53:51.456Z,14.57
2024-02-17T22:56:22.933Z,15.03
2024-02-17T22:58:50.575Z,14.83
2024-02-17T23:01:18.335Z,14.15
2024-02-17T23:03:46.141Z,14.15
2024-02-17T23:06:13.993Z,13.52
2024-02-17T23:08:41.625Z,12.84
2024-02-17T23:11:09.373Z,13.32
2024-02-17T23:13:38.329Z,12.67
2024-02-17T23:16:06.697Z,12.47
2024-02-17T23:18:34.897Z,12.65
2024-02-17T23:21:02.614Z,12.88
2024-02-17T23:23:30.186Z,13.52
2024-02-17T23:25:57.980Z,14.00
2024-02-17T23:28:25.604Z,14.17
2024-02-17T23:30:54.661Z,14.09
2024-02-17T23:33:22.317Z,13.17
2024-02-17T23:35:49.982Z,13.61
2024-02-17T23:38:17.763Z,14.04
2024-02-17T23:40:45.538Z,13.75
2024-02-17T23:43:13.264Z,13.60
2024-02-17T23:45:41.055Z,14.32
2024-02-17T23:48:10.119Z,14.07
2024-02-17T23:50:37.871Z,14.35
2024-02-17T23:53:05.486Z,13.99
2024-02-17T23:55:33.134Z,13.65
2024-02-17T23:58:01.140Z,13.76
